createdAt,value
2022-10-06T00:00:16.332Z,14.5
2022-10-06T00:01:23.126Z,14.4
2022-10-06T00:02:29.900Z,14.5
2022-10-06T00:03:36.699Z,14.4
2022-10-06T00:04:43.502Z,14.4
2022-10-06T00:05:50.304Z,14.4
2022-10-06T00:06:57.068Z,14.5
2022-10-06T00:08:03.859Z,14.5
2022-10-06T00:09:10.657Z,14.5
2022-10-06T00:10:17.449Z,14.5
2022-10-06T00:11:24.233Z,14.5
2022-10-06T00:14:03.747Z,14.5
2022-10-06T00:15:42.479Z,14.6
2022-10-06T00:17:21.222Z,14.6
2022-10-06T00:18:59.959Z,14.6
2022-10-06T00:20:07.229Z,14.5
2022-10-06T00:21:14.488Z,14.5
2022-10-06T00:22:53.223Z,14.5
2022-10-06T00:24:31.974Z,14.6
2022-10-06T00:26:10.700Z,14.6
2022-10-06T00:27:49.435Z,14.6
2022-10-06T00:29:28.179Z,14.6
2022-10-06T00:31:06.915Z,14.6
2022-10-06T00:32:45.654Z,14.6
2022-10-06T00:36:35.250Z,14.6
2022-10-06T00:37:41.779Z,14.6
2022-10-06T00:38:48.172Z,14.6
2022-10-06T00:39:54.644Z,14.5
2022-10-06T00:41:01.144Z,14.6
2022-10-06T00:42:07.476Z,14.5
2022-10-06T00:43:13.927Z,14.6
2022-10-06T00:44:20.348Z,14.5
2022-10-06T00:45:26.788Z,14.5
2022-10-06T00:46:33.229Z,14.4
2022-10-06T00:47:39.661Z,14.3
2022-10-06T00:48:46.100Z,14.3
2022-10-06T00:49:52.537Z,14.3
2022-10-06T00:50:58.975Z,14.2
2022-10-06T00:52:05.399Z,14.2
2022-10-06T00:53:11.864Z,14.1
2022-10-06T00:54:18.273Z,14.1
2022-10-06T00:55:24.716Z,14.1
2022-10-06T00:56:31.147Z,14
2022-10-06T00:57:37.599Z,14
2022-10-06T00:58:44.004Z,13.9
2022-10-06T00:59:50.449Z,13.9
2022-10-06T01:00:56.877Z,13.9
2022-10-06T01:02:03.332Z,13.9
2022-10-06T01:03:09.749Z,13.9
2022-10-06T01:04:16.205Z,13.9
2022-10-06T01:05:22.757Z,13.9
2022-10-06T01:06:29.367Z,13.9
2022-10-06T01:07:35.926Z,13.9
2022-10-06T01:08:42.413Z,13.8
2022-10-06T01:09:48.960Z,13.8
2022-10-06T01:10:55.517Z,13.8
2022-10-06T01:12:02.073Z,13.7
2022-10-06T01:13:08.635Z,13.7
2022-10-06T01:14:15.199Z,13.7
2022-10-06T01:15:21.740Z,13.7
2022-10-06T01:16:28.298Z,13.7
2022-10-06T01:17:34.855Z,13.7
2022-10-06T01:18:41.405Z,13.6
2022-10-06T01:20:30.723Z,13.6
2022-10-06T01:21:37.503Z,13.6
2022-10-06T01:22:44.287Z,13.6
2022-10-06T01:23:51.095Z,13.6
2022-10-06T01:24:57.885Z,13.6
2022-10-06T01:26:04.677Z,13.6
2022-10-06T01:27:11.456Z,13.5
2022-10-06T01:28:18.248Z,13.5
2022-10-06T01:29:25.045Z,13.6
2022-10-06T01:30:31.823Z,13.6
2022-10-06T01:31:38.620Z,13.6
2022-10-06T01:32:45.417Z,13.6
2022-10-06T01:33:52.199Z,13.6
2022-10-06T01:37:10.365Z,13.6
2022-10-06T01:38:45.827Z,13.6
2022-10-06T01:39:53.097Z,13.5
2022-10-06T01:41:31.840Z,13.5
2022-10-06T01:43:10.564Z,13.5
2022-10-06T01:44:49.297Z,13.5
2022-10-06T01:46:28.034Z,13.5
2022-10-06T01:48:06.771Z,13.6
2022-10-06T01:49:45.498Z,13.6
2022-10-06T01:51:24.231Z,13.6
2022-10-06T01:53:02.975Z,13.6
2022-10-06T01:54:41.711Z,13.6
2022-10-06T01:55:48.975Z,13.6
2022-10-06T01:58:49.758Z,13.6
2022-10-06T02:02:05.668Z,13.5
2022-10-06T02:03:12.460Z,13.4
2022-10-06T02:04:19.251Z,13.4
2022-10-06T02:05:26.045Z,13.4
2022-10-06T02:06:32.833Z,13.4
2022-10-06T02:07:39.617Z,13.3
2022-10-06T02:08:46.417Z,13.3
2022-10-06T02:09:53.206Z,13.3
2022-10-06T02:11:00.001Z,13.3
2022-10-06T02:12:06.788Z,13.3
2022-10-06T02:13:13.570Z,13.3
2022-10-06T02:14:20.376Z,13.3
2022-10-06T02:15:27.158Z,13.3
2022-10-06T02:16:33.940Z,13.2
2022-10-06T02:17:40.734Z,13.3
2022-10-06T02:18:47.525Z,13.3
2022-10-06T02:19:54.317Z,13.3
2022-10-06T02:21:01.106Z,13.3
2022-10-06T02:22:07.896Z,13.3
2022-10-06T02:23:14.686Z,13.3
2022-10-06T02:24:21.480Z,13.3
2022-10-06T02:25:28.294Z,13.2
2022-10-06T02:26:35.073Z,13.3
2022-10-06T02:27:41.844Z,13.3
2022-10-06T02:28:48.641Z,13.3
2022-10-06T02:30:21.942Z,13.2
2022-10-06T02:31:29.209Z,13.2
2022-10-06T02:33:07.933Z,13.2
2022-10-06T02:34:46.673Z,13.2
2022-10-06T02:36:25.408Z,13.2
2022-10-06T02:38:04.134Z,13.2
2022-10-06T02:39:42.881Z,13.1
2022-10-06T02:41:21.646Z,13.1
2022-10-06T02:43:00.347Z,13.1
2022-10-06T02:44:39.087Z,13.1
2022-10-06T02:46:17.810Z,13.1
2022-10-06T02:47:25.077Z,13
2022-10-06T02:48:32.338Z,12.9
2022-10-06T02:52:40.334Z,12.9
2022-10-06T02:55:56.041Z,12.9
2022-10-06T02:57:02.616Z,12.8
2022-10-06T02:58:09.121Z,12.8
2022-10-06T02:59:15.664Z,12.8
2022-10-06T03:00:22.252Z,12.8
2022-10-06T03:01:28.775Z,12.7
2022-10-06T03:02:35.323Z,12.8
2022-10-06T03:03:41.877Z,12.8
2022-10-06T03:04:48.428Z,12.8
2022-10-06T03:05:54.976Z,12.8
2022-10-06T03:07:01.535Z,12.8
2022-10-06T03:08:08.086Z,12.8
2022-10-06T03:09:14.639Z,12.8
2022-10-06T03:10:21.189Z,12.8
2022-10-06T03:11:27.744Z,12.7
2022-10-06T03:12:34.295Z,12.7
2022-10-06T03:13:40.844Z,12.6
2022-10-06T03:14:47.401Z,12.6
2022-10-06T03:15:53.946Z,12.6
2022-10-06T03:17:00.503Z,12.5
2022-10-06T03:18:07.053Z,12.5
2022-10-06T03:19:13.598Z,12.5
2022-10-06T03:20:20.162Z,12.4
2022-10-06T03:21:26.702Z,12.3
2022-10-06T03:22:33.257Z,12.4
2022-10-06T03:23:40.046Z,12.3
2022-10-06T03:24:46.840Z,12.3
2022-10-06T03:25:53.624Z,12.3
2022-10-06T03:27:00.430Z,12.3
2022-10-06T03:28:07.214Z,12.3
2022-10-06T03:29:13.998Z,12.3
2022-10-06T03:30:20.792Z,12.3
2022-10-06T03:31:27.590Z,12.3
2022-10-06T03:32:34.369Z,12.2
2022-10-06T03:33:41.151Z,12.2
2022-10-06T03:34:47.966Z,12.2
2022-10-06T03:35:54.735Z,12.2
2022-10-06T03:37:01.526Z,12.3
2022-10-06T03:40:19.677Z,12.3
2022-10-06T03:41:58.408Z,12.1
2022-10-06T03:43:37.146Z,12.1
2022-10-06T03:44:44.411Z,12.1
2022-10-06T03:45:51.676Z,12.1
2022-10-06T03:47:30.421Z,12.1
2022-10-06T03:49:09.144Z,12
2022-10-06T03:50:47.896Z,12
2022-10-06T03:52:26.598Z,12
2022-10-06T03:54:05.321Z,12
2022-10-06T03:55:44.051Z,12
2022-10-06T03:57:22.775Z,12
2022-10-06T03:59:01.505Z,12
2022-10-06T04:01:12.457Z,12.1
2022-10-06T04:03:07.654Z,12.3
2022-10-06T04:04:14.095Z,12.2
2022-10-06T04:05:20.508Z,12.2
2022-10-06T04:06:26.977Z,12.3
2022-10-06T04:07:33.371Z,12.3
2022-10-06T04:08:39.807Z,12.2
2022-10-06T04:09:46.240Z,12.2
2022-10-06T04:10:52.677Z,12.1
2022-10-06T04:11:59.162Z,12.1
2022-10-06T04:13:05.570Z,12.1
2022-10-06T04:14:11.994Z,12.1
2022-10-06T04:15:18.420Z,12.1
2022-10-06T04:16:24.852Z,12.1
2022-10-06T04:17:31.274Z,12
2022-10-06T04:18:37.712Z,12.1
2022-10-06T04:19:44.145Z,12.1
2022-10-06T04:20:50.582Z,12.1
2022-10-06T04:21:57.028Z,12.1
2022-10-06T04:23:03.449Z,12
2022-10-06T04:24:09.895Z,12
2022-10-06T04:25:16.302Z,12
2022-10-06T04:26:22.729Z,12
2022-10-06T04:27:29.161Z,12
2022-10-06T04:28:35.594Z,11.9
2022-10-06T04:29:42.025Z,11.9
2022-10-06T04:30:48.606Z,11.9
2022-10-06T04:31:55.156Z,11.9
2022-10-06T04:33:01.730Z,11.9
2022-10-06T04:34:08.342Z,11.9
2022-10-06T04:35:14.811Z,11.9
2022-10-06T04:36:21.363Z,11.9
2022-10-06T04:37:27.955Z,11.9
2022-10-06T04:38:34.483Z,11.9
2022-10-06T04:39:41.024Z,11.9
2022-10-06T04:40:47.578Z,11.9
2022-10-06T04:41:54.164Z,11.9
2022-10-06T04:43:00.683Z,11.8
2022-10-06T04:44:07.244Z,11.7
2022-10-06T04:45:15.046Z,11.7
2022-10-06T04:46:21.842Z,11.7
2022-10-06T04:47:28.634Z,11.7
2022-10-06T04:48:35.422Z,11.7
2022-10-06T04:49:42.214Z,11.7
2022-10-06T04:50:49.010Z,11.7
2022-10-06T04:51:55.822Z,11.6
2022-10-06T04:53:02.599Z,11.6
2022-10-06T04:54:09.392Z,11.5
2022-10-06T04:55:16.172Z,11.6
2022-10-06T04:56:23.033Z,11.6
2022-10-06T04:57:29.820Z,11.6
2022-10-06T04:58:36.548Z,11.6
2022-10-06T05:01:54.795Z,11.5
2022-10-06T05:03:01.950Z,11.4
2022-10-06T05:04:09.186Z,11.3
2022-10-06T05:05:48.006Z,11.3
2022-10-06T05:07:26.837Z,11.3
2022-10-06T05:09:05.506Z,11.3
2022-10-06T05:10:44.263Z,11.4
2022-10-06T05:12:22.892Z,11.3
2022-10-06T05:14:01.700Z,11.3
2022-10-06T05:15:40.342Z,11.2
2022-10-06T05:17:19.084Z,11.2
2022-10-06T05:18:57.824Z,11.2
2022-10-06T05:20:05.098Z,11.1
2022-10-06T05:23:05.825Z,11.1
2022-10-06T05:26:22.323Z,11
2022-10-06T05:28:09.172Z,11.1
2022-10-06T05:29:47.914Z,11.1
2022-10-06T05:31:26.654Z,11.1
2022-10-06T05:33:05.402Z,11.1
2022-10-06T05:34:44.133Z,11
2022-10-06T05:36:22.874Z,11.2
2022-10-06T05:37:30.132Z,11.2
2022-10-06T05:38:37.408Z,11.1
2022-10-06T05:40:16.153Z,11.1
2022-10-06T05:41:54.881Z,11
2022-10-06T05:43:33.595Z,11
2022-10-06T05:45:12.325Z,10.9
2022-10-06T05:46:51.057Z,10.9
2022-10-06T05:48:29.816Z,10.9
2022-10-06T05:50:08.522Z,10.9
2022-10-06T05:51:47.259Z,11
2022-10-06T05:53:25.998Z,11.1
2022-10-06T05:54:33.261Z,11.1
2022-10-06T05:55:40.532Z,11.1
2022-10-06T05:57:19.277Z,11.1
2022-10-06T05:58:58.005Z,11.1
2022-10-06T06:00:36.750Z,11.2
2022-10-06T06:02:15.475Z,11.2
2022-10-06T06:03:54.227Z,11.1
2022-10-06T06:08:02.231Z,11.1
2022-10-06T06:10:59.793Z,11.3
2022-10-06T06:12:06.587Z,11.3
2022-10-06T06:13:13.375Z,11.2
2022-10-06T06:14:20.171Z,11.2
2022-10-06T06:15:26.957Z,11.2
2022-10-06T06:16:33.756Z,11.3
2022-10-06T06:17:40.547Z,11.4
2022-10-06T06:18:47.342Z,11.4
2022-10-06T06:19:54.126Z,11.4
2022-10-06T06:21:00.925Z,11.4
2022-10-06T06:22:07.716Z,11.4
2022-10-06T06:23:14.507Z,11.4
2022-10-06T06:24:21.301Z,11.3
2022-10-06T06:25:28.093Z,11.3
2022-10-06T06:26:34.885Z,11.4
2022-10-06T06:27:41.674Z,11.4
2022-10-06T06:28:48.471Z,11.4
2022-10-06T06:29:55.255Z,11.5
2022-10-06T06:31:02.047Z,11.6
2022-10-06T06:32:08.835Z,11.6
2022-10-06T06:33:15.632Z,11.6
2022-10-06T06:34:22.423Z,11.6
2022-10-06T06:35:29.214Z,11.6
2022-10-06T06:36:36.008Z,11.7
2022-10-06T06:37:42.802Z,11.7
2022-10-06T06:39:15.842Z,11.7
2022-10-06T06:40:54.555Z,11.7
2022-10-06T06:42:33.297Z,11.7
2022-10-06T06:44:12.026Z,11.8
2022-10-06T06:45:50.778Z,11.8
2022-10-06T06:46:58.100Z,11.9
2022-10-06T06:48:05.307Z,11.9
2022-10-06T06:49:44.021Z,12
2022-10-06T06:51:22.763Z,12
2022-10-06T06:53:01.492Z,11.9
2022-10-06T06:54:40.217Z,12
2022-10-06T06:56:18.937Z,12
2022-10-06T06:57:57.681Z,12.1
2022-10-06T07:02:05.674Z,12.1
2022-10-06T07:03:24.338Z,12.3
2022-10-06T07:05:21.350Z,12.3
2022-10-06T07:06:27.905Z,12.2
2022-10-06T07:07:34.454Z,12.3
2022-10-06T07:08:41.030Z,12.4
2022-10-06T07:09:47.634Z,12.4
2022-10-06T07:10:54.119Z,12.4
2022-10-06T07:12:00.779Z,12.4
2022-10-06T07:13:07.271Z,12.4
2022-10-06T07:14:13.924Z,12.4
2022-10-06T07:15:20.473Z,12.4
2022-10-06T07:16:26.991Z,12.4
2022-10-06T07:17:33.582Z,12.4
2022-10-06T07:18:40.015Z,12.4
2022-10-06T07:19:46.614Z,12.5
2022-10-06T07:20:53.223Z,12.6
2022-10-06T07:21:59.784Z,12.6
2022-10-06T07:23:06.193Z,12.6
2022-10-06T07:24:12.762Z,12.6
2022-10-06T07:25:19.338Z,12.7
2022-10-06T07:26:25.856Z,12.7
2022-10-06T07:27:32.407Z,12.7
2022-10-06T07:28:38.961Z,12.8
2022-10-06T07:29:45.511Z,12.8
2022-10-06T07:30:52.071Z,12.8
2022-10-06T07:31:58.919Z,12.8
2022-10-06T07:33:05.731Z,12.9
2022-10-06T07:34:12.485Z,13
2022-10-06T07:35:19.375Z,13.1
2022-10-06T07:36:26.003Z,13.1
2022-10-06T07:37:32.815Z,13.2
2022-10-06T07:38:39.716Z,13.2
2022-10-06T07:39:46.382Z,13.2
2022-10-06T07:40:53.190Z,13.2
2022-10-06T07:42:00.040Z,13.3
2022-10-06T07:43:06.755Z,13.4
2022-10-06T07:44:13.575Z,13.5
2022-10-06T07:45:20.433Z,13.8
2022-10-06T07:47:58.986Z,14.3
2022-10-06T07:49:37.690Z,15.4
2022-10-06T07:51:16.433Z,15.7
2022-10-06T07:52:55.149Z,16.1
2022-10-06T07:54:02.451Z,16.5
2022-10-06T07:55:09.680Z,16.8
2022-10-06T07:56:48.410Z,16.9
2022-10-06T07:58:27.145Z,17
2022-10-06T08:00:05.903Z,17.4
2022-10-06T08:01:44.632Z,17.7
2022-10-06T08:03:23.353Z,17.9
2022-10-06T08:05:02.081Z,17.3
2022-10-06T08:06:40.824Z,17.6
2022-10-06T08:10:30.429Z,17.5
2022-10-06T08:11:38.693Z,17.6
2022-10-06T08:14:54.247Z,17.7
2022-10-06T08:16:00.682Z,18.2
2022-10-06T08:17:07.105Z,18.3
2022-10-06T08:18:13.537Z,18.4
2022-10-06T08:19:19.982Z,18.5
2022-10-06T08:20:26.399Z,18.2
2022-10-06T08:21:32.846Z,18.3
2022-10-06T08:22:39.264Z,18.3
2022-10-06T08:23:45.698Z,18.2
2022-10-06T08:24:52.136Z,18.2
2022-10-06T08:25:58.636Z,18.4
2022-10-06T08:27:05.003Z,18.3
2022-10-06T08:28:11.430Z,18.1
2022-10-06T08:29:17.864Z,17.9
2022-10-06T08:30:24.378Z,17.9
2022-10-06T08:31:30.733Z,17.7
2022-10-06T08:32:37.180Z,17.5
2022-10-06T08:33:43.600Z,17.2
2022-10-06T08:34:50.047Z,17
2022-10-06T08:35:56.465Z,16.4
2022-10-06T08:37:02.945Z,16
2022-10-06T08:38:09.331Z,16.1
2022-10-06T08:39:15.776Z,16.2
2022-10-06T08:40:22.219Z,16.1
2022-10-06T08:41:28.629Z,15.8
2022-10-06T08:42:35.202Z,15.7
2022-10-06T08:43:41.738Z,15.6
2022-10-06T08:44:48.293Z,15.4
2022-10-06T08:45:54.850Z,15.2
2022-10-06T08:47:01.401Z,15.2
2022-10-06T08:48:07.956Z,15.2
2022-10-06T08:49:14.500Z,15.2
2022-10-06T08:50:21.048Z,15.2
2022-10-06T08:51:27.620Z,15.2
2022-10-06T08:52:34.159Z,15.3
2022-10-06T08:53:40.711Z,15.4
2022-10-06T08:54:47.263Z,15.6
2022-10-06T08:55:53.813Z,15.6
2022-10-06T08:57:27.204Z,15.6
2022-10-06T08:58:33.996Z,15.7
2022-10-06T08:59:40.776Z,15.6
2022-10-06T09:00:47.572Z,15.7
2022-10-06T09:01:54.365Z,15.8
2022-10-06T09:03:01.220Z,15.7
2022-10-06T09:04:07.944Z,16
2022-10-06T09:05:14.729Z,16.4
2022-10-06T09:06:21.511Z,16.8
2022-10-06T09:07:28.302Z,17
2022-10-06T09:08:35.088Z,17.1
2022-10-06T09:09:41.896Z,17.6
2022-10-06T09:10:48.683Z,17.9
2022-10-06T09:14:06.832Z,18
2022-10-06T09:15:45.572Z,17.4
2022-10-06T09:17:24.305Z,16.7
2022-10-06T09:21:17.556Z,15.8
2022-10-06T09:22:56.412Z,15.5
2022-10-06T09:24:35.139Z,15.4
2022-10-06T09:27:54.688Z,15.4
2022-10-06T09:32:48.722Z,15.5
2022-10-06T09:34:59.603Z,15.5
2022-10-06T09:38:01.253Z,15.5
2022-10-06T09:38:01.479Z,15.5
2022-10-06T09:40:14.933Z,15.5
2022-10-06T09:42:27.041Z,15.5
2022-10-06T09:43:33.420Z,15.6
2022-10-06T09:45:46.282Z,16
2022-10-06T09:46:52.736Z,16.2
2022-10-06T09:49:05.601Z,16.6
2022-10-06T09:50:12.018Z,17
2022-10-06T09:51:18.527Z,17
2022-10-06T09:52:25.015Z,16.9
2022-10-06T09:53:31.390Z,16.8
2022-10-06T09:54:37.731Z,16.7
2022-10-06T09:55:44.162Z,16.5
2022-10-06T09:56:50.604Z,16.4
2022-10-06T09:57:57.040Z,16.4
2022-10-06T09:59:03.464Z,16.2
2022-10-06T10:00:09.898Z,16.2
2022-10-06T10:01:16.367Z,16.2
2022-10-06T10:02:22.765Z,16.2
2022-10-06T10:03:29.246Z,16
2022-10-06T10:04:35.757Z,16.1
2022-10-06T10:05:42.314Z,15.9
2022-10-06T10:06:48.911Z,15.9
2022-10-06T10:07:55.459Z,15.9
2022-10-06T10:09:02.005Z,16
2022-10-06T10:10:08.507Z,16
2022-10-06T10:11:15.062Z,16
2022-10-06T10:12:21.599Z,16
2022-10-06T10:13:28.144Z,16
2022-10-06T10:14:34.703Z,16
2022-10-06T10:15:41.244Z,16
2022-10-06T10:16:47.790Z,15.9
2022-10-06T10:17:54.344Z,15.9
2022-10-06T10:19:02.139Z,15.9
2022-10-06T10:20:08.931Z,15.9
2022-10-06T10:21:15.707Z,16
2022-10-06T10:22:22.495Z,16.1
2022-10-06T10:23:29.295Z,16.2
2022-10-06T10:24:36.081Z,16.2
2022-10-06T10:25:42.866Z,16.4
2022-10-06T10:26:49.651Z,16.4
2022-10-06T10:27:56.442Z,16.4
2022-10-06T10:29:03.233Z,16.3
2022-10-06T10:30:10.024Z,16.3
2022-10-06T10:31:16.808Z,16.4
2022-10-06T10:32:23.601Z,16.4
2022-10-06T10:35:41.775Z,16.3
2022-10-06T10:36:49.024Z,16.5
2022-10-06T10:37:56.294Z,16.6
2022-10-06T10:39:35.019Z,16.6
2022-10-06T10:41:13.750Z,16.9
2022-10-06T10:42:52.475Z,17
2022-10-06T10:44:31.237Z,17.1
2022-10-06T10:46:09.938Z,17
2022-10-06T10:47:48.676Z,17.1
2022-10-06T10:49:27.411Z,17.2
2022-10-06T10:51:06.259Z,17.2
2022-10-06T10:52:44.877Z,17.2
2022-10-06T10:53:52.151Z,17.4
2022-10-06T10:56:52.871Z,17.5
2022-10-06T11:00:10.311Z,17.7
2022-10-06T11:03:25.980Z,17.7
2022-10-06T11:04:32.542Z,17.8
2022-10-06T11:05:39.112Z,17.7
2022-10-06T11:06:45.674Z,17.6
2022-10-06T11:07:52.191Z,17.3
2022-10-06T11:08:58.759Z,17.4
2022-10-06T11:10:05.300Z,17.4
2022-10-06T11:11:11.864Z,17.5
2022-10-06T11:12:18.414Z,17.9
2022-10-06T11:13:24.956Z,18
2022-10-06T11:14:31.517Z,18.3
2022-10-06T11:15:38.060Z,18.1
2022-10-06T11:16:44.612Z,18
2022-10-06T11:17:51.178Z,17.8
2022-10-06T11:18:57.714Z,17.6
2022-10-06T11:20:04.272Z,17.4
2022-10-06T11:21:10.854Z,17.2
2022-10-06T11:22:17.380Z,17.1
2022-10-06T11:23:23.937Z,17.1
2022-10-06T11:24:30.597Z,17.2
2022-10-06T11:26:43.600Z,17.5
2022-10-06T11:27:50.149Z,17.6
2022-10-06T11:28:56.716Z,17.6
2022-10-06T11:30:03.256Z,17.8
2022-10-06T11:31:10.067Z,18.4
2022-10-06T11:32:16.840Z,18.5
2022-10-06T11:33:23.627Z,18.7
2022-10-06T11:34:30.423Z,18.8
2022-10-06T11:35:37.223Z,19.1
2022-10-06T11:36:44.005Z,19.3
2022-10-06T11:37:50.789Z,19.5
2022-10-06T11:38:57.585Z,19.3
2022-10-06T11:40:04.374Z,19.3
2022-10-06T11:41:11.165Z,19.2
2022-10-06T11:42:17.962Z,19
2022-10-06T11:43:24.741Z,18.6
2022-10-06T11:44:31.537Z,18.4
2022-10-06T11:47:49.817Z,18.4
2022-10-06T11:49:28.420Z,19.1
2022-10-06T11:50:35.689Z,18.8
2022-10-06T11:51:42.965Z,19
2022-10-06T11:53:21.682Z,19.5
2022-10-06T11:55:00.414Z,20.1
2022-10-06T11:56:39.153Z,20.8
2022-10-06T11:58:17.877Z,22.6
2022-10-06T11:59:56.613Z,24
2022-10-06T12:01:35.346Z,24.3
2022-10-06T12:03:14.082Z,24.4
2022-10-06T12:04:52.816Z,25
2022-10-06T12:06:31.589Z,24.3
2022-10-06T12:08:11.300Z,24.4
2022-10-06T12:11:26.981Z,24.9
2022-10-06T12:12:33.563Z,26.2
2022-10-06T12:13:40.084Z,26.4
2022-10-06T12:14:46.634Z,26.5
2022-10-06T12:15:53.195Z,26.6
2022-10-06T12:16:59.743Z,26.5
2022-10-06T12:18:06.304Z,26.6
2022-10-06T12:19:12.893Z,26.4
2022-10-06T12:20:19.397Z,26.9
2022-10-06T12:21:25.952Z,27.5
2022-10-06T12:22:32.510Z,27.9
2022-10-06T12:23:39.056Z,27.8
2022-10-06T12:24:45.664Z,26.4
2022-10-06T12:25:52.185Z,24.8
2022-10-06T12:26:58.712Z,24.6
2022-10-06T12:28:05.264Z,24.1
2022-10-06T12:29:11.817Z,24.2
2022-10-06T12:30:18.376Z,24.6
2022-10-06T12:31:24.950Z,25
2022-10-06T12:32:31.504Z,24.8
2022-10-06T12:33:38.027Z,24.3
2022-10-06T12:34:44.583Z,23.9
2022-10-06T12:35:51.132Z,24.5
2022-10-06T12:36:57.718Z,25.5
2022-10-06T12:38:04.248Z,26.4
2022-10-06T12:39:11.046Z,26.9
2022-10-06T12:40:17.822Z,27.1
2022-10-06T12:41:24.607Z,27
2022-10-06T12:42:31.408Z,27.3
2022-10-06T12:43:38.218Z,27.8
2022-10-06T12:44:44.983Z,26.5
2022-10-06T12:45:51.768Z,25.6
2022-10-06T12:46:58.556Z,25.6
2022-10-06T12:48:05.375Z,26.4
2022-10-06T12:49:12.138Z,26.1
2022-10-06T12:50:18.934Z,26.2
2022-10-06T12:51:25.777Z,26.1
2022-10-06T12:52:32.511Z,26.8
2022-10-06T12:55:11.420Z,27.2
2022-10-06T12:56:50.156Z,27.8
2022-10-06T12:58:28.890Z,27.5
2022-10-06T13:00:07.629Z,27.2
2022-10-06T13:01:14.888Z,27.2
2022-10-06T13:02:22.147Z,25.7
2022-10-06T13:04:00.910Z,24.7
2022-10-06T13:05:39.687Z,25.3
2022-10-06T13:07:18.348Z,26.2
2022-10-06T13:08:57.082Z,25.9
2022-10-06T13:10:35.811Z,25.1
2022-10-06T13:12:14.559Z,24.4
2022-10-06T13:13:53.282Z,23.5
2022-10-06T13:17:42.871Z,22.3
2022-10-06T13:18:49.662Z,20.2
2022-10-06T13:19:56.205Z,19.9
2022-10-06T13:21:02.752Z,19.6
2022-10-06T13:22:09.298Z,19.5
2022-10-06T13:23:15.883Z,19.2
2022-10-06T13:24:22.409Z,19.2
2022-10-06T13:25:28.961Z,19.2
2022-10-06T13:26:35.536Z,19.2
2022-10-06T13:27:42.078Z,19
2022-10-06T13:28:48.615Z,19.1
2022-10-06T13:29:55.279Z,19.3
2022-10-06T13:31:01.715Z,19.5
2022-10-06T13:32:08.269Z,19.8
2022-10-06T13:33:14.823Z,20.2
2022-10-06T13:34:21.363Z,20.1
2022-10-06T13:35:27.927Z,19.8
2022-10-06T13:36:34.473Z,19.6
2022-10-06T13:37:41.050Z,19.4
2022-10-06T13:38:47.597Z,19.2
2022-10-06T13:39:54.138Z,19
2022-10-06T13:41:00.680Z,18.9
2022-10-06T13:42:07.285Z,18.7
2022-10-06T13:43:13.801Z,18.6
2022-10-06T13:44:20.339Z,18.4
2022-10-06T13:45:26.903Z,18.4
2022-10-06T13:46:33.688Z,18.3
2022-10-06T13:47:40.474Z,18.2
2022-10-06T13:48:47.268Z,18.4
2022-10-06T13:49:54.113Z,18.4
2022-10-06T13:51:00.849Z,18.4
2022-10-06T13:52:07.635Z,18.5
2022-10-06T13:53:14.433Z,18.5
2022-10-06T13:54:21.219Z,18.5
2022-10-06T13:55:28.000Z,18.5
2022-10-06T13:56:34.805Z,18.5
2022-10-06T13:57:41.581Z,18.4
2022-10-06T13:58:48.444Z,18.3
2022-10-06T13:59:55.164Z,18.3
2022-10-06T14:02:34.420Z,18.2
2022-10-06T14:04:13.101Z,18
2022-10-06T14:05:51.868Z,17.9
2022-10-06T14:07:30.562Z,17.9
2022-10-06T14:08:37.836Z,17.8
2022-10-06T14:09:45.141Z,17.7
2022-10-06T14:11:23.840Z,17.7
2022-10-06T14:13:02.584Z,17.7
2022-10-06T14:14:41.397Z,17.7
2022-10-06T14:16:20.056Z,17.6
2022-10-06T14:17:58.824Z,17.6
2022-10-06T14:19:37.518Z,17.6
2022-10-06T14:21:16.261Z,17.6
2022-10-06T14:25:05.896Z,17.5
2022-10-06T14:26:12.449Z,17.4
2022-10-06T14:27:18.999Z,17.3
2022-10-06T14:28:25.560Z,17.3
2022-10-06T14:29:32.169Z,17.2
2022-10-06T14:30:38.664Z,17.3
2022-10-06T14:31:45.214Z,17.2
2022-10-06T14:32:51.771Z,17.2
2022-10-06T14:33:58.333Z,17.2
2022-10-06T14:35:04.925Z,17.2
2022-10-06T14:36:11.446Z,17.3
2022-10-06T14:37:17.984Z,17.3
2022-10-06T14:38:24.540Z,17.2
2022-10-06T14:39:31.096Z,17.2
2022-10-06T14:40:37.650Z,17.2
2022-10-06T14:41:44.204Z,17.2
2022-10-06T14:42:50.760Z,17.2
2022-10-06T14:43:57.325Z,17.2
2022-10-06T14:45:03.865Z,17.2
2022-10-06T14:46:10.418Z,17.1
2022-10-06T14:47:16.972Z,17.1
2022-10-06T14:48:23.533Z,17.1
2022-10-06T14:49:30.085Z,17.1
2022-10-06T14:50:36.648Z,17
2022-10-06T14:51:43.184Z,17
2022-10-06T14:52:49.740Z,17
2022-10-06T14:53:56.534Z,17
2022-10-06T14:55:03.314Z,16.9
2022-10-06T14:56:10.108Z,16.9
2022-10-06T14:57:16.903Z,16.9
2022-10-06T14:58:23.683Z,16.9
2022-10-06T14:59:30.561Z,16.8
2022-10-06T15:00:37.295Z,16.8
2022-10-06T15:01:44.190Z,16.8
2022-10-06T15:02:50.849Z,16.8
2022-10-06T15:03:57.656Z,16.8
2022-10-06T15:05:04.446Z,16.7
2022-10-06T15:06:11.228Z,16.7
2022-10-06T15:07:18.016Z,16.7
2022-10-06T15:09:57.202Z,16.7
2022-10-06T15:11:35.907Z,16.6
2022-10-06T15:13:14.649Z,16.6
2022-10-06T15:14:53.380Z,16.7
2022-10-06T15:16:00.648Z,16.6
2022-10-06T15:17:07.918Z,16.6
2022-10-06T15:18:46.656Z,16.5
2022-10-06T15:20:25.391Z,16.4
2022-10-06T15:22:04.124Z,16.5
2022-10-06T15:23:42.858Z,16.5
2022-10-06T15:25:21.596Z,16.5
2022-10-06T15:27:00.326Z,16.4
2022-10-06T15:28:39.070Z,16.5
2022-10-06T15:32:28.658Z,16.4
2022-10-06T15:33:35.493Z,16.4
2022-10-06T15:34:42.283Z,16.4
2022-10-06T15:35:49.083Z,16.4
2022-10-06T15:36:55.874Z,16.4
2022-10-06T15:38:02.668Z,16.4
2022-10-06T15:39:09.455Z,16.3
2022-10-06T15:40:16.273Z,16.3
2022-10-06T15:41:23.074Z,16.2
2022-10-06T15:42:29.840Z,16.2
2022-10-06T15:43:36.640Z,16.2
2022-10-06T15:44:43.455Z,16.2
2022-10-06T15:45:50.214Z,16.1
2022-10-06T15:46:57.018Z,16.2
2022-10-06T15:48:03.799Z,16.3
2022-10-06T15:49:10.593Z,16.3
2022-10-06T15:50:17.380Z,16.2
2022-10-06T15:51:24.179Z,16.1
2022-10-06T15:52:30.972Z,16.1
2022-10-06T15:53:37.764Z,16.1
2022-10-06T15:54:44.558Z,16
2022-10-06T15:55:51.376Z,16
2022-10-06T15:56:58.131Z,15.9
2022-10-06T15:58:04.920Z,15.8
2022-10-06T15:59:11.713Z,15.7
2022-10-06T16:00:18.515Z,15.7
2022-10-06T16:02:30.719Z,15.7
2022-10-06T16:04:09.460Z,15.7
2022-10-06T16:05:21.656Z,15.6
2022-10-06T16:06:28.917Z,15.6
2022-10-06T16:08:07.654Z,15.6
2022-10-06T16:09:46.457Z,15.6
2022-10-06T16:11:25.107Z,15.6
2022-10-06T16:13:03.836Z,15.4
2022-10-06T16:14:42.581Z,15.3
2022-10-06T16:16:21.312Z,15.2
2022-10-06T16:18:00.054Z,15.2
2022-10-06T16:19:38.784Z,15.2
2022-10-06T16:21:17.525Z,15.2
2022-10-06T16:22:57.267Z,15.1
2022-10-06T16:26:12.837Z,15.1
2022-10-06T16:27:19.252Z,15
2022-10-06T16:28:25.674Z,14.9
2022-10-06T16:29:32.153Z,14.8
2022-10-06T16:30:38.542Z,14.7
2022-10-06T16:31:44.984Z,14.7
2022-10-06T16:32:51.419Z,14.6
2022-10-06T16:33:57.851Z,14.5
2022-10-06T16:35:04.290Z,14.6
2022-10-06T16:36:10.722Z,14.6
2022-10-06T16:37:17.153Z,14.5
2022-10-06T16:38:23.592Z,14.5
2022-10-06T16:39:30.035Z,14.5
2022-10-06T16:40:36.467Z,14.5
2022-10-06T16:41:42.903Z,14.6
2022-10-06T16:42:49.332Z,14.7
2022-10-06T16:43:55.780Z,14.7
2022-10-06T16:45:02.238Z,14.7
2022-10-06T16:46:08.652Z,14.6
2022-10-06T16:47:15.084Z,14.4
2022-10-06T16:48:21.520Z,14.3
2022-10-06T16:49:27.959Z,14.1
2022-10-06T16:50:34.388Z,14
2022-10-06T16:51:40.823Z,13.9
2022-10-06T16:52:47.251Z,13.8
2022-10-06T16:53:53.835Z,13.7
2022-10-06T16:55:00.379Z,13.6
2022-10-06T16:56:06.926Z,13.6
2022-10-06T16:57:13.487Z,13.5
2022-10-06T16:58:20.068Z,13.4
2022-10-06T16:59:26.601Z,13.3
2022-10-06T17:00:33.149Z,13.2
2022-10-06T17:01:39.773Z,13.1
2022-10-06T17:02:46.254Z,13
2022-10-06T17:03:52.802Z,12.9
2022-10-06T17:04:59.356Z,12.8
2022-10-06T17:06:05.916Z,12.7
2022-10-06T17:07:12.491Z,12.7
2022-10-06T17:09:01.768Z,12.7
2022-10-06T17:10:08.599Z,12.6
2022-10-06T17:11:15.349Z,12.5
2022-10-06T17:12:22.144Z,12.6
2022-10-06T17:13:28.934Z,12.6
2022-10-06T17:14:35.727Z,12.6
2022-10-06T17:15:42.516Z,12.5
2022-10-06T17:16:49.308Z,12.5
2022-10-06T17:17:56.108Z,12.4
2022-10-06T17:19:02.888Z,12.3
2022-10-06T17:20:09.693Z,12.3
2022-10-06T17:21:16.482Z,12.3
2022-10-06T17:22:23.286Z,12.3
2022-10-06T17:25:41.382Z,12.3
2022-10-06T17:27:20.201Z,12.3
2022-10-06T17:28:27.386Z,12.1
2022-10-06T17:29:34.662Z,12.1
2022-10-06T17:31:13.393Z,12.1
2022-10-06T17:32:52.135Z,11.9
2022-10-06T17:34:30.870Z,11.8
2022-10-06T17:36:09.609Z,11.7
2022-10-06T17:37:48.355Z,11.7
2022-10-06T17:39:27.106Z,11.6
2022-10-06T17:41:05.835Z,11.5
2022-10-06T17:42:44.569Z,11.5
2022-10-06T17:44:23.319Z,11.3
2022-10-06T17:46:03.070Z,11.3
2022-10-06T17:49:18.787Z,11.3
2022-10-06T17:50:25.319Z,11.4
2022-10-06T17:51:31.865Z,11.3
2022-10-06T17:52:38.433Z,11.3
2022-10-06T17:53:44.985Z,11.2
2022-10-06T17:54:51.546Z,11.2